Terminal Aerodrome Forecast
Issued by NWS Shreveport, LA

Home | Current Version | Previous Version | Text Only | Print | Product List | Glossary On
Versions: 1 2 3 4 5 6 7 8 9 10 11 12 13 14
000
FTUS44 KSHV 300538
TAFLFK
TAF
KLFK 300538Z 3006/0106 VRB04KT P6SM SCT050 BKN180 OVC250
      TEMPO 3010/3013 3SM BR BKN010
     FM301300 21006KT P6SM BKN015 BKN250
     FM301500 23009KT P6SM VCTS SCT040CB SCT120 SCT250
     FM010000 19006KT P6SM VCTS SCT050CB SCT140 BKN250
     FM010300 18004KT P6SM FEW060 SCT150 SCT250=

USA.gov is the U.S. government's official web portal to all federal, state and local government web resources and services.